Time;durP1;ratioP1;P1;durP2;ratioP2;P2;SDS_P1;SDS_P2;PMS_P1;PMS_P2;Temp;Humidity;BMP_temperature;BMP_pressure;BME280_temperature;BME280_humidity;BME280_pressure;Samples;Min_cycle;Max_cycle;Signal;HPM_P1;HPM_P2
2023/03/26 00:01:20;;;;;;;6.10;3.17;;;8.20;99.90;;;;;;4958460;28;20298;-71
2023/03/26 00:03:52;;;;;;;5.43;2.63;;;8.10;99.90;;;;;;4974210;28;20210;-70
2023/03/26 00:06:21;;;;;;;5.20;2.87;;;8.10;99.90;;;;;;4973944;28;20261;-71
2023/03/26 00:08:51;;;;;;;3.93;2.80;;;8.20;99.90;;;;;;4975116;28;20722;-70
2023/03/26 00:11:20;;;;;;;6.07;2.97;;;8.20;99.90;;;;;;4960643;28;20231;-81
2023/03/26 00:13:47;;;;;;;7.60;2.70;;;8.20;99.90;;;;;;4973946;28;20242;-73
2023/03/26 00:16:17;;;;;;;4.27;2.80;;;8.10;99.90;;;;;;4951621;28;20202;-70
2023/03/26 00:18:45;;;;;;;9.73;3.37;;;8.10;99.90;;;;;;4975292;28;20209;-71
2023/03/26 00:21:14;;;;;;;8.47;3.60;;;8.10;99.90;;;;;;4976956;28;21316;-70
2023/03/26 00:23:42;;;;;;;4.83;3.00;;;8.10;99.90;;;;;;4962303;28;20222;-70
2023/03/26 00:26:10;;;;;;;5.00;2.73;;;8.20;99.90;;;;;;4962044;28;20198;-70
2023/03/26 00:28:39;;;;;;;8.07;3.83;;;8.20;99.90;;;;;;4963670;28;20230;-72
2023/03/26 00:31:12;;;;;;;5.30;3.20;;;8.10;99.90;;;;;;4955563;28;20324;-70
2023/03/26 00:33:40;;;;;;;6.87;3.53;;;8.20;99.90;;;;;;4969498;28;20242;-71
2023/03/26 00:36:13;;;;;;;7.40;3.63;;;8.20;99.90;;;;;;4977768;28;20206;-69
2023/03/26 00:38:41;;;;;;;10.37;3.90;;;8.10;99.90;;;;;;4963813;28;20209;-69
2023/03/26 00:41:21;;;;;;;8.20;3.40;;;8.10;99.90;;;;;;4977571;28;20202;-69
2023/03/26 00:43:57;;;;;;;7.00;3.77;;;8.10;99.90;;;;;;4971594;28;20217;-69
2023/03/26 00:46:26;;;;;;;8.40;3.60;;;8.10;99.90;;;;;;4964685;28;20190;-69
2023/03/26 00:48:57;;;;;;;8.70;3.33;;;8.20;99.90;;;;;;4978858;28;20227;-70
2023/03/26 00:51:26;;;;;;;9.23;4.47;;;8.10;99.90;;;;;;4977825;28;20234;-70
2023/03/26 00:53:54;;;;;;;8.93;3.77;;;8.10;99.90;;;;;;4953536;28;20208;-69
2023/03/26 00:56:21;;;;;;;19.07;8.07;;;8.20;99.90;;;;;;4977493;28;20591;-70
2023/03/26 00:58:48;;;;;;;12.93;7.23;;;8.20;99.90;;;;;;4961802;28;20203;-70
2023/03/26 01:01:26;;;;;;;16.97;8.97;;;8.20;99.90;;;;;;4970603;28;20243;-71
2023/03/26 01:04:29;;;;;;;10.27;6.30;;;8.10;99.90;;;;;;4960283;28;20565;-71
2023/03/26 01:07:01;;;;;;;11.70;6.90;;;8.10;1.00;;;;;;4978642;28;20202;-70
2023/03/26 01:09:36;;;;;;;12.67;4.90;;;8.10;1.00;;;;;;4962123;28;20195;-70
2023/03/26 01:12:07;;;;;;;25.33;15.20;;;8.10;1.00;;;;;;4974739;28;20741;-70
2023/03/26 01:14:37;;;;;;;21.07;13.37;;;8.10;1.00;;;;;;4961818;28;20206;-70
2023/03/26 01:17:06;;;;;;;31.83;22.70;;;8.00;1.00;;;;;;4953383;28;20202;-69
2023/03/26 01:19:37;;;;;;;13.00;6.37;;;8.00;1.00;;;;;;4973795;28;20234;-70
2023/03/26 01:22:08;;;;;;;13.23;6.20;;;8.10;1.00;;;;;;4961798;28;20198;-71
2023/03/26 01:24:36;;;;;;;12.80;5.40;;;8.00;1.00;;;;;;4976989;28;20237;-71
2023/03/26 01:27:26;;;;;;;16.33;6.23;;;8.10;1.00;;;;;;4962281;28;20194;-70
2023/03/26 01:29:58;;;;;;;18.13;6.73;;;8.20;1.00;;;;;;4977356;28;20367;-70
2023/03/26 01:32:43;;;;;;;15.80;6.23;;;8.20;1.00;;;;;;4959319;28;20315;-71
2023/03/26 01:35:27;;;;;;;12.10;5.23;;;8.20;1.00;;;;;;4954988;28;20256;-70
2023/03/26 01:38:22;;;;;;;19.73;8.57;;;8.20;1.00;;;;;;4975335;28;20552;-70
2023/03/26 01:41:12;;;;;;;15.23;5.43;;;8.20;1.00;;;;;;4972541;28;20573;-70
2023/03/26 01:44:02;;;;;;;17.80;5.97;;;8.20;1.00;;;;;;4958688;28;20226;-70
2023/03/26 01:46:36;;;;;;;15.03;5.70;;;8.20;1.00;;;;;;4977001;28;20229;-69
2023/03/26 01:49:04;;;;;;;22.57;7.20;;;8.20;1.00;;;;;;4975687;28;20214;-72
2023/03/26 01:51:34;;;;;;;21.37;5.50;;;8.30;1.00;;;;;;4977670;28;20505;-71
2023/03/26 01:54:03;;;;;;;19.00;7.07;;;8.30;1.00;;;;;;4975552;28;20198;-71
2023/03/26 01:56:57;;;;;;;23.23;6.80;;;8.30;1.00;;;;;;4961329;28;20206;-71
2023/03/26 01:59:48;;;;;;;20.63;6.07;;;8.30;1.00;;;;;;4959454;28;20277;-71
2023/03/26 02:02:23;;;;;;;27.50;8.77;;;8.40;1.00;;;;;;4962690;28;20629;-71
2023/03/26 02:04:56;;;;;;;28.77;8.73;;;8.40;1.00;;;;;;4973373;28;20207;-72
2023/03/26 02:07:33;;;;;;;25.87;5.70;;;8.40;1.00;;;;;;4978293;28;20293;-71
2023/03/26 02:10:28;;;;;;;21.13;5.67;;;8.30;1.00;;;;;;4962013;28;20556;-71
2023/03/26 02:12:56;;;;;;;21.23;4.97;;;8.30;1.00;;;;;;4972923;28;20202;-71
2023/03/26 02:15:23;;;;;;;24.20;4.77;;;8.30;1.00;;;;;;4976186;28;20203;-71
2023/03/26 02:17:51;;;;;;;22.23;5.17;;;8.40;1.00;;;;;;4962079;28;20280;-71
2023/03/26 02:20:20;;;;;;;19.33;5.10;;;8.30;1.00;;;;;;4976495;28;20208;-71
2023/03/26 02:22:47;;;;;;;24.93;5.83;;;8.40;1.00;;;;;;4975206;28;20206;-71
2023/03/26 02:25:18;;;;;;;23.07;5.13;;;8.40;1.00;;;;;;4962718;28;20298;-71
2023/03/26 02:27:48;;;;;;;24.33;5.70;;;8.40;1.00;;;;;;4960463;28;20195;-71
2023/03/26 02:30:19;;;;;;;30.80;5.33;;;8.40;1.00;;;;;;4959449;28;20238;-71
2023/03/26 02:32:50;;;;;;;26.57;5.60;;;8.40;1.00;;;;;;4960376;28;20288;-71
2023/03/26 02:35:20;;;;;;;16.60;5.27;;;8.40;99.90;;;;;;4957693;28;20212;-71
2023/03/26 02:37:51;;;;;;;24.77;5.67;;;8.30;1.00;;;;;;4975563;28;20328;-71
2023/03/26 02:40:21;;;;;;;21.87;6.40;;;8.30;99.90;;;;;;4974262;28;20237;-71
2023/03/26 02:42:49;;;;;;;25.67;5.97;;;8.30;99.90;;;;;;4959972;28;20214;-70
2023/03/26 02:45:16;;;;;;;22.63;5.53;;;8.30;99.90;;;;;;4976856;28;20698;-71
2023/03/26 02:48:19;;;;;;;23.60;5.90;;;8.30;99.90;;;;;;4960084;28;20233;-71
2023/03/26 02:51:07;;;;;;;26.47;5.50;;;8.30;99.90;;;;;;4961419;28;20213;-71
2023/03/26 02:53:44;;;;;;;21.93;5.40;;;8.30;99.90;;;;;;4975082;28;20194;-71
2023/03/26 02:56:27;;;;;;;28.33;5.77;;;8.30;99.90;;;;;;4960988;28;20213;-71
2023/03/26 02:59:13;;;;;;;26.03;4.77;;;8.30;99.90;;;;;;4962198;28;20201;-71
2023/03/26 03:01:44;;;;;;;34.57;5.57;;;8.30;99.90;;;;;;4960016;28;20214;-68
2023/03/26 03:04:13;;;;;;;26.53;5.60;;;8.30;99.90;;;;;;4966769;28;20721;-68
2023/03/26 03:06:40;;;;;;;21.13;5.37;;;8.30;99.90;;;;;;4958787;28;20227;-70
2023/03/26 03:09:08;;;;;;;27.90;5.60;;;8.30;99.90;;;;;;4974288;28;20278;-72
2023/03/26 03:11:35;;;;;;;31.47;6.10;;;8.30;99.90;;;;;;4961632;28;20709;-72
2023/03/26 03:14:02;;;;;;;19.17;5.37;;;8.30;99.90;;;;;;4961014;28;20679;-72
2023/03/26 03:16:31;;;;;;;26.43;5.17;;;8.30;99.90;;;;;;4976904;28;20269;-72
2023/03/26 03:19:18;;;;;;;23.23;5.33;;;8.30;99.90;;;;;;4960276;28;20202;-72
2023/03/26 03:21:46;;;;;;;25.13;5.60;;;8.30;99.90;;;;;;4974761;28;20203;-73
2023/03/26 03:24:17;;;;;;;21.60;5.63;;;8.30;99.90;;;;;;4978044;28;20305;-72
2023/03/26 03:26:46;;;;;;;31.80;6.10;;;8.30;99.90;;;;;;4957834;28;20274;-71
2023/03/26 03:29:34;;;;;;;22.63;4.97;;;8.30;99.90;;;;;;4962642;28;20214;-72
2023/03/26 03:32:22;;;;;;;20.87;5.13;;;8.30;99.90;;;;;;4961082;28;20207;-72
2023/03/26 03:34:52;;;;;;;30.07;6.33;;;8.30;99.90;;;;;;4975471;28;20206;-72
2023/03/26 03:37:19;;;;;;;33.27;6.13;;;8.30;99.90;;;;;;4975440;28;20589;-72
2023/03/26 03:39:52;;;;;;;23.97;6.43;;;8.20;99.90;;;;;;4960988;28;20873;-73
2023/03/26 03:42:21;;;;;;;19.77;4.53;;;8.20;99.90;;;;;;4973293;28;20206;-71
2023/03/26 03:44:51;;;;;;;29.60;6.50;;;8.20;99.90;;;;;;4975429;28;20221;-71
2023/03/26 03:51:38;;;;;;;27.43;6.13;;;8.20;99.90;;;;;;4957615;28;20735;-71
2023/03/26 03:54:16;;;;;;;30.80;5.73;;;8.00;99.90;;;;;;4955338;28;20192;-71
2023/03/26 03:56:47;;;;;;;27.50;6.23;;;7.90;99.90;;;;;;4960147;28;20701;-71
2023/03/26 03:59:37;;;;;;;30.50;5.73;;;7.90;99.90;;;;;;4951677;28;20576;-71
2023/03/26 04:02:19;;;;;;;24.67;6.80;;;7.90;99.90;;;;;;4943605;28;20206;-71
2023/03/26 04:04:56;;;;;;;28.70;8.67;;;7.90;99.90;;;;;;4929227;28;20666;-70
2023/03/26 04:07:24;;;;;;;28.87;6.53;;;7.90;99.90;;;;;;4942285;28;20201;-70
2023/03/26 04:10:04;;;;;;;38.70;8.00;;;8.00;99.90;;;;;;4944870;28;20191;-70
2023/03/26 04:12:59;;;;;;;24.70;5.03;;;8.00;99.90;;;;;;4961633;28;20213;-69
2023/03/26 04:15:50;;;;;;;24.83;7.43;;;8.10;99.90;;;;;;4957906;28;20737;-71
2023/03/26 04:18:17;;;;;;;21.47;5.37;;;8.10;99.90;;;;;;4962344;28;20215;-71
2023/03/26 04:20:45;;;;;;;30.80;7.77;;;8.10;99.90;;;;;;4978635;28;20207;-70
2023/03/26 04:23:18;;;;;;;26.30;7.73;;;8.10;99.90;;;;;;4976495;28;20199;-71
2023/03/26 04:25:52;;;;;;;24.77;5.60;;;8.20;99.90;;;;;;4979361;28;20214;-71
2023/03/26 04:28:31;;;;;;;35.40;7.37;;;8.20;99.90;;;;;;4979550;28;20293;-71
2023/03/26 04:31:17;;;;;;;32.17;6.57;;;8.20;99.90;;;;;;4963304;28;20777;-71
2023/03/26 04:33:46;;;;;;;32.23;7.47;;;8.20;99.90;;;;;;4962053;28;20606;-71
2023/03/26 04:36:16;;;;;;;30.83;6.37;;;8.20;99.90;;;;;;4945996;28;20245;-71
2023/03/26 04:38:48;;;;;;;31.33;6.77;;;8.20;99.90;;;;;;4979208;28;20209;-71
2023/03/26 04:41:17;;;;;;;30.97;6.83;;;8.20;99.90;;;;;;4979204;28;20202;-69
2023/03/26 04:43:55;;;;;;;27.53;6.63;;;8.20;99.90;;;;;;4960830;28;20234;-72
2023/03/26 04:46:33;;;;;;;27.80;6.63;;;8.20;99.90;;;;;;4963541;28;20221;-71
2023/03/26 04:49:09;;;;;;;30.57;9.53;;;8.20;99.90;;;;;;4978380;28;20225;-71
2023/03/26 04:51:40;;;;;;;28.37;8.90;;;8.20;99.90;;;;;;4964260;28;20203;-72
2023/03/26 04:54:23;;;;;;;29.13;8.77;;;8.30;99.90;;;;;;4978169;28;20212;-69
2023/03/26 04:57:05;;;;;;;28.33;7.87;;;8.20;99.90;;;;;;4947529;28;20216;-69
2023/03/26 04:59:51;;;;;;;38.20;7.57;;;8.30;99.90;;;;;;4954654;28;20234;-69
2023/03/26 05:02:19;;;;;;;25.60;7.60;;;8.20;99.90;;;;;;4976060;28;20195;-70
2023/03/26 05:04:51;;;;;;;31.17;9.40;;;8.30;99.90;;;;;;4963454;28;20661;-69
2023/03/26 05:07:24;;;;;;;31.50;7.97;;;8.30;99.90;;;;;;4976168;28;20202;-69
2023/03/26 05:09:56;;;;;;;25.83;7.13;;;8.30;99.90;;;;;;4978372;28;20202;-69
2023/03/26 05:12:49;;;;;;;29.73;7.27;;;8.30;99.90;;;;;;4968682;28;20215;-69
2023/03/26 05:15:24;;;;;;;26.97;5.73;;;8.30;99.90;;;;;;4965018;28;20313;-68
2023/03/26 05:18:10;;;;;;;25.27;6.00;;;8.30;99.90;;;;;;4963422;28;20206;-66
2023/03/26 05:20:42;;;;;;;39.90;13.93;;;8.30;99.90;;;;;;4976666;28;20249;-65
2023/03/26 05:23:10;;;;;;;32.57;7.60;;;8.30;99.90;;;;;;4941896;28;20199;-63
2023/03/26 05:25:41;;;;;;;21.53;6.23;;;8.30;99.90;;;;;;4945860;28;20229;-64
2023/03/26 05:28:14;;;;;;;29.73;7.07;;;8.30;99.90;;;;;;4977887;28;20655;-67
2023/03/26 05:30:52;;;;;;;29.73;6.87;;;8.30;99.90;;;;;;4958931;28;20206;-65
2023/03/26 05:33:21;;;;;;;24.23;6.17;;;8.30;99.90;;;;;;4978124;28;20639;-64
2023/03/26 05:36:08;;;;;;;21.57;6.63;;;8.30;99.90;;;;;;4976373;28;20714;-64
2023/03/26 05:38:35;;;;;;;30.30;6.00;;;8.30;99.90;;;;;;4944053;28;20226;-64
2023/03/26 05:41:07;;;;;;;26.17;5.80;;;8.40;99.90;;;;;;4961720;28;20199;-68
2023/03/26 05:43:36;;;;;;;27.80;6.13;;;8.40;99.90;;;;;;4976963;28;20723;-67
2023/03/26 05:46:22;;;;;;;29.13;6.53;;;8.40;99.90;;;;;;4959778;28;20242;-67
2023/03/26 05:48:50;;;;;;;27.43;6.60;;;8.40;99.90;;;;;;4977120;28;20223;-68
2023/03/26 05:51:18;;;;;;;24.20;6.30;;;8.30;99.90;;;;;;4973341;28;20202;-66
2023/03/26 05:53:54;;;;;;;20.93;5.77;;;8.30;99.90;;;;;;4977904;28;20213;-66
2023/03/26 05:56:24;;;;;;;20.70;5.47;;;8.30;99.90;;;;;;4961782;28;20273;-68
2023/03/26 05:59:09;;;;;;;21.97;5.37;;;8.30;99.90;;;;;;4963931;28;20210;-68
2023/03/26 06:01:55;;;;;;;23.83;6.40;;;8.30;99.90;;;;;;4960079;28;20233;-67
2023/03/26 06:04:44;;;;;;;18.43;5.03;;;8.30;99.90;;;;;;4962549;28;20206;-67
2023/03/26 06:07:50;;;;;;;27.67;5.57;;;8.30;99.90;;;;;;4965494;28;20214;-67
2023/03/26 06:10:18;;;;;;;25.37;5.87;;;8.30;99.90;;;;;;4976400;28;21162;-66
2023/03/26 06:12:45;;;;;;;23.83;6.07;;;8.30;99.90;;;;;;4962279;28;20198;-69
2023/03/26 06:15:13;;;;;;;22.87;6.03;;;8.50;99.90;;;;;;4960688;28;20202;-66
2023/03/26 06:18:00;;;;;;;23.23;5.53;;;8.50;99.90;;;;;;4977485;28;20206;-66
2023/03/26 06:20:50;;;;;;;26.67;5.60;;;8.60;99.90;;;;;;4961505;28;20210;-68
2023/03/26 06:23:25;;;;;;;21.70;5.90;;;8.70;99.90;;;;;;4975289;28;20301;-67
2023/03/26 06:26:05;;;;;;;24.40;6.27;;;8.70;99.90;;;;;;4975565;28;20218;-66
2023/03/26 06:28:50;;;;;;;22.33;6.63;;;8.70;99.90;;;;;;4964758;28;20206;-67
2023/03/26 06:31:53;;;;;;;22.40;5.93;;;8.70;99.90;;;;;;4963953;28;20202;-66
2023/03/26 06:34:24;;;;;;;27.70;7.73;;;8.80;99.90;;;;;;4978095;28;20209;-69
2023/03/26 06:36:52;;;;;;;36.27;12.87;;;8.80;99.90;;;;;;4960106;28;20217;-67
2023/03/26 06:39:20;;;;;;;37.43;8.10;;;8.80;99.90;;;;;;4977630;28;20213;-67
2023/03/26 06:42:00;;;;;;;24.70;6.63;;;8.70;99.90;;;;;;4974454;28;20789;-69
2023/03/26 06:44:50;;;;;;;24.30;6.90;;;8.70;99.90;;;;;;4964813;28;20612;-68
2023/03/26 06:47:19;;;;;;;27.40;7.00;;;8.70;99.90;;;;;;4977772;28;20214;-69
2023/03/26 06:49:49;;;;;;;29.23;6.60;;;8.70;99.90;;;;;;4961486;28;20691;-69
2023/03/26 06:52:30;;;;;;;21.67;6.17;;;8.70;99.90;;;;;;4947479;28;20226;-66
2023/03/26 06:55:21;;;;;;;35.03;7.00;;;8.70;99.90;;;;;;4956410;28;20213;-69
2023/03/26 06:58:09;;;;;;;29.27;6.80;;;8.70;99.90;;;;;;4959740;28;20209;-69
2023/03/26 07:01:05;;;;;;;34.73;7.20;;;8.70;99.90;;;;;;4963247;28;20257;-70
2023/03/26 07:03:51;;;;;;;25.03;6.30;;;8.80;99.90;;;;;;4963204;28;20249;-70
2023/03/26 07:06:40;;;;;;;32.13;6.67;;;8.80;99.90;;;;;;4967319;28;20695;-70
2023/03/26 07:09:29;;;;;;;25.70;6.93;;;8.90;99.90;;;;;;4969247;28;20283;-70
2023/03/26 07:12:22;;;;;;;27.37;6.97;;;8.90;99.90;;;;;;4951241;28;20222;-70
2023/03/26 07:15:01;;;;;;;24.30;6.17;;;9.00;99.90;;;;;;4979657;28;20261;-69
2023/03/26 07:17:47;;;;;;;24.70;5.57;;;9.00;99.90;;;;;;4961438;28;20201;-70
2023/03/26 07:20:21;;;;;;;24.83;6.13;;;9.00;99.90;;;;;;4976680;28;20575;-69
2023/03/26 07:22:49;;;;;;;23.27;5.60;;;8.90;99.90;;;;;;4976351;28;20205;-69
2023/03/26 07:25:33;;;;;;;30.53;5.97;;;8.90;99.90;;;;;;4963865;28;20772;-70
2023/03/26 07:28:33;;;;;;;27.03;5.47;;;8.80;99.90;;;;;;4979298;28;20210;-70
2023/03/26 07:31:20;;;;;;;28.50;6.57;;;8.90;99.90;;;;;;4958841;28;20666;-69
2023/03/26 07:34:09;;;;;;;35.10;6.13;;;8.90;99.90;;;;;;4974496;28;20336;-70
2023/03/26 07:37:17;;;;;;;24.23;6.60;;;9.00;99.90;;;;;;4958238;28;20218;-74
2023/03/26 07:40:32;;;;;;;22.10;5.93;;;9.00;99.90;;;;;;4953465;28;20219;-70
2023/03/26 07:43:30;;;;;;;22.87;5.80;;;9.20;99.90;;;;;;4945703;28;20213;-72
2023/03/26 07:46:18;;;;;;;28.20;5.03;;;9.30;99.90;;;;;;4960993;28;20296;-70
2023/03/26 07:48:52;;;;;;;23.90;5.63;;;9.40;99.90;;;;;;4960178;28;20805;-70
2023/03/26 07:51:58;;;;;;;19.37;5.77;;;9.50;99.90;;;;;;4921593;29;20500;-70
2023/03/26 07:54:44;;;;;;;23.33;5.47;;;9.60;99.90;;;;;;4920262;29;20551;-68
2023/03/26 07:58:20;;;;;;;21.80;5.57;;;9.60;99.90;;;;;;4951105;28;20213;-70
2023/03/26 08:01:49;;;;;;;20.47;5.30;;;9.70;99.90;;;;;;4935514;28;20292;-69
2023/03/26 08:04:40;;;;;;;27.10;5.17;;;9.50;99.90;;;;;;4961391;28;20196;-71
2023/03/26 08:07:45;;;;;;;16.43;5.30;;;9.60;99.90;;;;;;4973716;28;20198;-71
2023/03/26 08:10:37;;;;;;;27.13;5.33;;;9.50;98.60;;;;;;4959235;28;20290;-72
2023/03/26 08:13:05;;;;;;;32.83;5.80;;;9.50;99.90;;;;;;4959666;28;20252;-71
2023/03/26 08:15:36;;;;;;;19.73;5.13;;;9.50;81.80;;;;;;4957192;28;20353;-71
2023/03/26 08:18:34;;;;;;;22.53;5.80;;;9.50;89.40;;;;;;4957496;28;20198;-71
2023/03/26 08:21:24;;;;;;;21.83;6.83;;;9.40;99.90;;;;;;4955829;28;20210;-72
2023/03/26 08:24:05;;;;;;;21.80;5.23;;;9.20;88.30;;;;;;4961074;28;20554;-72
2023/03/26 08:26:50;;;;;;;25.47;6.17;;;9.20;99.90;;;;;;4960458;28;20218;-71
2023/03/26 08:29:35;;;;;;;24.17;5.53;;;9.20;83.70;;;;;;4963125;28;20212;-70
2023/03/26 08:32:07;;;;;;;23.70;5.40;;;9.10;52.80;;;;;;4964176;28;20194;-70
2023/03/26 08:34:34;;;;;;;18.63;4.80;;;9.20;90.20;;;;;;4957663;28;20254;-70
2023/03/26 08:37:01;;;;;;;21.70;5.23;;;9.20;57.40;;;;;;4973539;28;20191;-72
2023/03/26 08:39:28;;;;;;;20.87;4.87;;;9.30;55.00;;;;;;4953390;28;20202;-72
2023/03/26 08:42:19;;;;;;;21.00;4.53;;;9.30;60.10;;;;;;4960974;28;20198;-71
2023/03/26 08:45:20;;;;;;;17.70;4.10;;;9.50;33.70;;;;;;4964892;28;20699;-71
2023/03/26 08:47:47;;;;;;;17.80;4.20;;;9.30;12.00;;;;;;4958492;28;20214;-72
2023/03/26 08:50:41;;;;;;;16.03;3.67;;;9.40;17.70;;;;;;4963695;28;20185;-71
2023/03/26 08:53:20;;;;;;;14.70;3.50;;;9.30;12.30;;;;;;4979177;28;20234;-72
2023/03/26 08:55:50;;;;;;;20.23;3.93;;;9.20;23.90;;;;;;4952210;28;20202;-72
2023/03/26 08:58:20;;;;;;;22.67;5.77;;;9.20;1.00;;;;;;4963014;28;20230;-73
2023/03/26 09:01:41;;;;;;;16.27;4.33;;;9.30;4.10;;;;;;4964254;28;20230;-73
2023/03/26 09:04:39;;;;;;;17.73;4.33;;;9.60;16.60;;;;;;4934334;28;20199;-72
2023/03/26 09:07:15;;;;;;;14.07;3.67;;;9.80;1.00;;;;;;4964199;28;20606;-72
2023/03/26 09:09:56;;;;;;;12.57;3.70;;;9.70;1.00;;;;;;4955680;28;20750;-72
2023/03/26 09:12:32;;;;;;;13.80;3.50;;;9.60;1.00;;;;;;4959693;28;20285;-73
2023/03/26 09:15:28;;;;;;;13.30;3.50;;;9.40;8.10;;;;;;4962247;28;20206;-72
2023/03/26 09:18:04;;;;;;;16.70;3.77;;;9.60;1.00;;;;;;4964396;28;20202;-71
2023/03/26 09:20:56;;;;;;;14.10;3.30;;;9.60;1.00;;;;;;4964178;28;20198;-70
2023/03/26 09:23:32;;;;;;;13.53;3.70;;;9.70;1.00;;;;;;4958595;28;20214;-71
2023/03/26 09:26:08;;;;;;;13.87;3.90;;;9.50;1.00;;;;;;4963650;28;20305;-70
2023/03/26 09:28:41;;;;;;;18.70;3.20;;;9.50;30.90;;;;;;4977031;28;20344;-71
2023/03/26 09:31:14;;;;;;;15.47;3.77;;;9.70;38.90;;;;;;4961268;28;20201;-72
2023/03/26 09:34:30;;;;;;;12.97;3.60;;;9.60;22.10;;;;;;4964744;28;20246;-70
2023/03/26 09:37:20;;;;;;;15.33;3.70;;;9.50;97.10;;;;;;4946836;28;20212;-71
2023/03/26 09:40:13;;;;;;;7.97;2.20;;;9.50;70.80;;;;;;4964861;28;20230;-73
2023/03/26 09:43:01;;;;;;;9.23;2.57;;;9.40;1.00;;;;;;4977026;28;20203;-72
2023/03/26 09:45:40;;;;;;;9.50;2.53;;;9.40;3.90;;;;;;4961327;28;20297;-69
2023/03/26 09:48:47;;;;;;;9.37;2.57;;;9.20;1.00;;;;;;4959612;28;20222;-72
2023/03/26 09:51:29;;;;;;;8.20;2.43;;;9.10;1.00;;;;;;4957274;28;20305;-71
2023/03/26 09:54:11;;;;;;;6.83;2.27;;;9.20;1.00;;;;;;4960200;28;20257;-72
2023/03/26 09:56:49;;;;;;;6.10;2.07;;;9.10;1.00;;;;;;4963560;28;20203;-72
2023/03/26 09:59:31;;;;;;;7.87;2.47;;;9.10;1.00;;;;;;4961866;28;20190;-72
2023/03/26 10:02:37;;;;;;;11.83;2.47;;;9.20;13.70;;;;;;4960859;28;20203;-72
2023/03/26 10:05:40;;;;;;;6.90;2.00;;;9.10;47.80;;;;;;4978462;28;20694;-72
2023/03/26 10:08:22;;;;;;;19.73;5.80;;;8.90;99.90;;;;;;4960347;28;20203;-72
2023/03/26 10:11:27;;;;;;;48.93;18.33;;;9.10;99.90;;;;;;4960782;28;20281;-72
2023/03/26 10:14:17;;;;;;;9.90;3.33;;;9.10;99.90;;;;;;4976652;28;20194;-72
2023/03/26 10:17:14;;;;;;;10.97;2.67;;;9.00;99.90;;;;;;4978527;28;20297;-72
2023/03/26 10:20:16;;;;;;;8.33;2.50;;;8.90;99.90;;;;;;4963661;28;20245;-72
2023/03/26 10:22:51;;;;;;;12.57;6.30;;;9.00;99.90;;;;;;4976213;28;20197;-71
2023/03/26 10:25:21;;;;;;;10.50;2.87;;;9.00;99.90;;;;;;4958880;28;20201;-72
2023/03/26 10:28:04;;;;;;;8.57;2.37;;;9.10;1.00;;;;;;4975701;28;20770;-72
2023/03/26 10:30:47;;;;;;;23.13;12.37;;;9.20;99.90;;;;;;4976424;28;20706;-70
2023/03/26 10:33:16;;;;;;;20.03;9.27;;;8.90;99.90;;;;;;4962818;28;20225;-72
2023/03/26 10:35:52;;;;;;;12.90;4.40;;;8.90;99.90;;;;;;4965008;28;20304;-72
2023/03/26 10:38:31;;;;;;;12.43;3.57;;;8.90;99.90;;;;;;4959783;28;20197;-71
2023/03/26 10:41:03;;;;;;;11.73;3.30;;;8.90;1.00;;;;;;4975804;28;20732;-72
2023/03/26 10:43:46;;;;;;;10.03;2.80;;;8.90;99.90;;;;;;4954913;28;20197;-71
2023/03/26 10:46:38;;;;;;;7.20;3.43;;;8.90;1.00;;;;;;4960254;28;20221;-73
2023/03/26 10:49:27;;;;;;;11.30;1.97;;;9.10;1.00;;;;;;4961628;28;20217;-73
2023/03/26 10:52:03;;;;;;;7.87;2.03;;;8.80;99.90;;;;;;4961274;28;20207;-73
2023/03/26 10:54:34;;;;;;;10.23;3.20;;;8.80;99.90;;;;;;4975926;28;20191;-69
2023/03/26 10:57:16;;;;;;;5.47;2.40;;;8.90;99.90;;;;;;4962573;28;20285;-69
2023/03/26 10:59:43;;;;;;;6.70;2.37;;;8.70;99.90;;;;;;4975675;28;20656;-73
2023/03/26 11:02:27;;;;;;;8.37;2.17;;;8.70;99.90;;;;;;4978475;28;20202;-72
2023/03/26 11:05:33;;;;;;;6.83;3.30;;;8.70;99.90;;;;;;4963734;28;20201;-74
2023/03/26 11:08:12;;;;;;;10.67;4.83;;;8.90;99.90;;;;;;4976680;28;20210;-70
2023/03/26 11:10:55;;;;;;;10.53;3.57;;;9.20;99.90;;;;;;4959087;28;20225;-72
2023/03/26 11:14:03;;;;;;;6.33;2.17;;;9.40;99.90;;;;;;4975150;28;20220;-72
2023/03/26 11:16:50;;;;;;;3.13;2.10;;;9.20;99.90;;;;;;4924034;28;20370;-72
2023/03/26 11:19:33;;;;;;;8.87;2.50;;;9.40;1.00;;;;;;4975827;28;20213;-71
2023/03/26 11:22:35;;;;;;;5.93;2.13;;;9.50;99.90;;;;;;4978256;28;20254;-73
2023/03/26 11:25:36;;;;;;;6.87;2.20;;;9.20;99.90;;;;;;4955732;28;20234;-73
2023/03/26 11:28:14;;;;;;;9.33;2.10;;;9.30;99.90;;;;;;4977583;28;20691;-72
2023/03/26 11:31:14;;;;;;;4.67;1.83;;;9.20;1.00;;;;;;4963534;28;20692;-73
2023/03/26 11:33:47;;;;;;;9.33;2.53;;;9.30;1.00;;;;;;4957988;28;20249;-72
2023/03/26 11:36:22;;;;;;;9.37;2.83;;;9.40;1.00;;;;;;4962965;28;20206;-70
2023/03/26 11:38:56;;;;;;;4.73;2.40;;;9.00;99.90;;;;;;4963910;28;20190;-74
2023/03/26 11:41:31;;;;;;;6.73;2.10;;;9.00;99.90;;;;;;4978179;28;20198;-71
2023/03/26 11:44:23;;;;;;;7.97;2.33;;;9.00;1.00;;;;;;4979149;28;20539;-72
2023/03/26 11:46:57;;;;;;;9.07;2.23;;;8.90;99.90;;;;;;4974373;28;20312;-72
2023/03/26 11:49:25;;;;;;;7.67;1.70;;;8.90;1.00;;;;;;4973265;28;20209;-71
2023/03/26 11:51:53;;;;;;;4.67;1.80;;;9.00;1.00;;;;;;4972578;28;20321;-70
2023/03/26 11:54:21;;;;;;;10.37;2.40;;;8.80;99.90;;;;;;4959230;28;20202;-71
2023/03/26 11:56:52;;;;;;;7.73;2.40;;;9.00;1.00;;;;;;4961176;28;20540;-71
2023/03/26 11:59:50;;;;;;;6.17;1.90;;;8.90;1.00;;;;;;4957372;28;20565;-69
2023/03/26 12:02:37;;;;;;;15.07;5.93;;;8.80;1.00;;;;;;4958247;28;20208;-70
2023/03/26 12:05:18;;;;;;;7.10;3.03;;;8.90;1.00;;;;;;4962178;28;20317;-73
2023/03/26 12:07:45;;;;;;;7.73;2.13;;;8.90;99.90;;;;;;4956498;28;20218;-70
2023/03/26 12:10:41;;;;;;;5.77;1.60;;;8.80;1.00;;;;;;4963754;28;20744;-72
2023/03/26 12:13:20;;;;;;;11.50;2.20;;;8.80;99.90;;;;;;4954214;28;20205;-72
2023/03/26 12:15:47;;;;;;;10.00;2.40;;;8.80;1.00;;;;;;4958066;28;20953;-70
2023/03/26 12:18:33;;;;;;;5.40;1.63;;;8.90;1.00;;;;;;4978574;28;20313;-72
2023/03/26 12:21:05;;;;;;;7.93;1.70;;;8.90;1.00;;;;;;4959585;28;20632;-71
2023/03/26 12:23:57;;;;;;;5.83;1.97;;;8.80;1.00;;;;;;4960950;28;20205;-68
2023/03/26 12:26:45;;;;;;;7.23;2.07;;;9.00;29.90;;;;;;4958591;28;20305;-71
2023/03/26 12:29:15;;;;;;;8.60;2.20;;;9.10;1.00;;;;;;4949283;28;20688;-69
2023/03/26 12:31:52;;;;;;;7.70;1.90;;;9.00;1.00;;;;;;4979640;28;20650;-72
2023/03/26 12:34:21;;;;;;;10.07;2.20;;;9.00;1.00;;;;;;4981000;28;20190;-73
2023/03/26 12:36:54;;;;;;;6.93;2.03;;;9.00;1.00;;;;;;4965993;28;20659;-72
2023/03/26 12:39:29;;;;;;;3.90;1.57;;;8.90;99.90;;;;;;4965671;28;20273;-73
2023/03/26 12:42:29;;;;;;;4.97;1.60;;;8.80;99.90;;;;;;4978954;28;20654;-73
2023/03/26 12:45:22;;;;;;;4.27;2.13;;;8.70;99.90;;;;;;4980745;28;20218;-74
2023/03/26 12:47:51;;;;;;;4.10;1.50;;;8.80;1.00;;;;;;4966560;28;20649;-73
2023/03/26 12:51:01;;;;;;;3.00;1.37;;;8.70;23.20;;;;;;4965861;28;20689;-74
2023/03/26 12:53:36;;;;;;;1.90;1.10;;;8.70;99.90;;;;;;4940258;28;20260;-73
2023/03/26 12:56:37;;;;;;;3.47;1.20;;;8.80;1.00;;;;;;4980085;28;20193;-72
2023/03/26 12:59:28;;;;;;;3.13;1.40;;;8.90;99.90;;;;;;4973965;28;20202;-70
2023/03/26 13:02:36;;;;;;;3.97;1.67;;;8.80;99.90;;;;;;4951071;28;20225;-70
2023/03/26 13:05:21;;;;;;;5.70;2.03;;;8.90;1.00;;;;;;4974076;28;20329;-73
2023/03/26 13:08:10;;;;;;;3.43;1.33;;;8.90;1.00;;;;;;4961561;28;20218;-70
2023/03/26 13:10:47;;;;;;;3.83;1.83;;;8.70;99.90;;;;;;4979561;28;20253;-71
2023/03/26 13:13:44;;;;;;;4.73;1.80;;;8.70;1.00;;;;;;4964406;28;20205;-71
2023/03/26 13:16:33;;;;;;;4.50;1.50;;;8.80;1.00;;;;;;4966902;28;20298;-71
2023/03/26 13:19:25;;;;;;;4.37;2.10;;;8.90;99.90;;;;;;4965887;28;20195;-71
2023/03/26 13:21:52;;;;;;;4.67;1.60;;;9.00;99.90;;;;;;4964769;28;20194;-72
2023/03/26 13:24:28;;;;;;;3.93;1.83;;;8.90;99.90;;;;;;4964645;28;20796;-68
2023/03/26 13:27:18;;;;;;;2.87;1.40;;;9.10;1.00;;;;;;4964597;28;20361;-71
2023/03/26 13:30:14;;;;;;;3.53;1.40;;;9.30;99.90;;;;;;4979767;28;20191;-71
2023/03/26 13:32:56;;;;;;;3.97;1.70;;;9.30;99.90;;;;;;4966894;28;20206;-71
2023/03/26 13:35:46;;;;;;;3.00;1.50;;;9.10;1.00;;;;;;4965285;28;20199;-70
2023/03/26 13:38:20;;;;;;;4.63;1.90;;;9.10;1.00;;;;;;4980824;28;20206;-71
2023/03/26 13:40:59;;;;;;;4.03;1.80;;;9.10;1.00;;;;;;4980894;28;20198;-71
2023/03/26 13:43:35;;;;;;;3.20;2.10;;;9.20;1.00;;;;;;4980769;28;20217;-70
2023/03/26 13:46:11;;;;;;;5.03;2.87;;;9.20;1.00;;;;;;4967122;28;20230;-69
2023/03/26 13:48:59;;;;;;;2.50;1.27;;;9.30;1.00;;;;;;4975950;28;20705;-71
2023/03/26 13:51:51;;;;;;;5.20;1.40;;;9.40;1.00;;;;;;4980285;28;20559;-70
2023/03/26 13:54:33;;;;;;;4.00;1.70;;;9.50;1.00;;;;;;4959058;28;20206;-69
2023/03/26 13:57:04;;;;;;;3.33;1.60;;;9.60;1.00;;;;;;4966523;28;20835;-69
2023/03/26 13:59:39;;;;;;;2.93;1.40;;;9.80;1.00;;;;;;4966751;28;20281;-72
2023/03/26 14:02:32;;;;;;;5.73;2.17;;;9.70;99.90;;;;;;4980216;28;20230;-72
2023/03/26 14:05:08;;;;;;;2.83;1.73;;;9.80;99.90;;;;;;4962651;28;20211;-70